Time;durP1;ratioP1;P1;durP2;ratioP2;P2;SDS_P1;SDS_P2;PMS_P1;PMS_P2;Temp;Humidity;BMP_temperature;BMP_pressure;BME280_temperature;BME280_humidity;BME280_pressure;Samples;Min_cycle;Max_cycle;Signal;HPM_P1;HPM_P2
2024/01/31 00:01:21;;;;;;;2.47;2.37;;;;;;;9.88;60.46;102505.16;5010358;28;20702;-40
2024/01/31 00:03:46;;;;;;;2.55;2.30;;;;;;;9.89;60.76;102506.03;5026132;28;20314;-39
2024/01/31 00:06:12;;;;;;;1.30;1.27;;;;;;;9.89;60.74;102506.91;5031470;28;20472;-38
2024/01/31 00:08:38;;;;;;;2.53;2.30;;;;;;;9.91;60.54;102509.47;5019373;28;20053;-39
2024/01/31 00:11:03;;;;;;;0.88;0.85;;;;;;;9.95;60.67;102503.22;5023742;28;20033;-37
2024/01/31 00:13:29;;;;;;;4.60;4.32;;;;;;;9.97;60.33;102504.06;5023130;28;20026;-36
2024/01/31 00:15:54;;;;;;;0.52;0.52;;;;;;;9.98;60.33;102504.94;5024454;28;20377;-38
2024/01/31 00:18:19;;;;;;;1.83;1.70;;;;;;;9.96;60.97;102510.22;5024275;28;20044;-40
2024/01/31 00:20:45;;;;;;;1.67;1.30;;;;;;;10.02;60.90;102504.81;5022488;28;20571;-39
2024/01/31 00:23:10;;;;;;;2.03;1.40;;;;;;;10.00;60.73;102503.97;5026070;28;20277;-38
2024/01/31 00:25:35;;;;;;;1.10;1.00;;;;;;;10.04;60.63;102505.63;5026719;28;20269;-38
2024/01/31 00:28:00;;;;;;;0.87;0.83;;;;;;;10.05;60.94;102503.84;5024385;28;20284;-38
2024/01/31 00:30:26;;;;;;;2.45;1.48;;;;;;;10.05;60.91;102502.09;5025178;28;20326;-36
2024/01/31 00:32:51;;;;;;;0.88;0.65;;;;;;;10.07;61.17;102502.91;5023799;28;20056;-42
2024/01/31 00:35:16;;;;;;;1.40;1.17;;;;;;;10.17;60.88;102505.28;5015026;28;20580;-40
2024/01/31 00:37:41;;;;;;;1.67;1.57;;;;;;;10.18;61.16;102507.88;5018571;28;20377;-40
2024/01/31 00:40:09;;;;;;;0.53;0.50;;;;;;;10.18;61.29;102501.75;5021869;28;20306;-39
2024/01/31 00:42:37;;;;;;;0.90;0.65;;;;;;;10.21;61.24;102501.66;5024878;28;20723;-39
2024/01/31 00:45:04;;;;;;;0.52;0.35;;;;;;;10.28;60.90;102502.38;5027160;28;20068;-42
2024/01/31 00:47:30;;;;;;;2.67;1.85;;;;;;;10.29;60.97;102498.81;5016098;28;20041;-38
2024/01/31 00:49:55;;;;;;;1.08;0.88;;;;;;;10.29;61.56;102504.06;5012809;28;20040;-40
2024/01/31 00:52:20;;;;;;;2.78;2.55;;;;;;;10.33;61.19;102496.06;5011556;28;20037;-38
2024/01/31 00:54:45;;;;;;;1.92;1.60;;;;;;;10.34;61.15;102503.06;5018094;28;20037;-38
2024/01/31 00:57:11;;;;;;;0.67;0.67;;;;;;;10.35;61.63;102499.50;5026028;28;20044;-40
2024/01/31 00:59:36;;;;;;;3.50;2.30;;;;;;;10.34;61.71;102500.41;5021029;28;20891;-38
2024/01/31 01:02:01;;;;;;;2.22;1.77;;;;;;;10.43;61.67;102491.44;5019624;28;20038;-39
2024/01/31 01:04:27;;;;;;;2.53;2.40;;;;;;;10.49;61.26;102506.19;5022208;28;20091;-39
2024/01/31 01:06:52;;;;;;;1.70;1.60;;;;;;;10.54;60.97;102504.25;5020459;28;20018;-39
2024/01/31 01:09:17;;;;;;;3.38;3.17;;;;;;;10.52;61.35;102503.44;5026481;28;20167;-39
2024/01/31 01:11:42;;;;;;;4.40;3.73;;;;;;;10.51;61.53;102497.31;5013622;28;20069;-39
2024/01/31 01:14:08;;;;;;;2.65;2.55;;;;;;;10.60;61.51;102504.09;5024320;28;20650;-39
2024/01/31 01:16:33;;;;;;;6.63;4.07;;;;;;;10.64;61.65;102496.94;5026271;28;20412;-39
2024/01/31 01:18:58;;;;;;;3.55;3.35;;;;;;;10.65;61.59;102506.56;5024270;28;20120;-38
2024/01/31 01:21:24;;;;;;;0.90;0.65;;;;;;;10.68;61.79;102504.72;5023076;28;20080;-39
2024/01/31 01:23:49;;;;;;;3.63;3.25;;;;;;;10.75;61.54;102512.44;5017597;28;20092;-40
2024/01/31 01:26:15;;;;;;;1.08;0.75;;;;;;;10.81;61.35;102505.22;5021517;28;20112;-39
2024/01/31 01:28:43;;;;;;;1.02;0.68;;;;;;;10.86;61.04;102507.69;5016911;28;20033;-39
2024/01/31 01:31:10;;;;;;;3.30;3.08;;;;;;;10.91;60.98;102510.19;5022664;28;20084;-41
2024/01/31 01:33:36;;;;;;;3.15;2.92;;;;;;;10.96;61.14;102501.25;5021549;28;20476;-39
2024/01/31 01:36:02;;;;;;;3.13;2.93;;;;;;;10.88;61.06;102503.25;5020538;28;20046;-39
2024/01/31 01:38:27;;;;;;;1.38;1.27;;;;;;;10.98;60.90;102504.66;5025165;28;20306;-41
2024/01/31 01:40:52;;;;;;;1.83;1.17;;;;;;;11.01;60.62;102509.00;5020862;28;20044;-40
2024/01/31 01:43:18;;;;;;;2.78;2.58;;;;;;;11.02;60.59;102504.59;5019393;28;20630;-39
2024/01/31 01:45:44;;;;;;;0.20;0.20;;;;;;;11.09;60.49;102501.72;5021321;28;20048;-39
2024/01/31 01:48:13;;;;;;;0.10;0.10;;;;;;;11.04;60.54;102503.63;5021492;28;20022;-40
2024/01/31 01:50:39;;;;;;;0.77;0.68;;;;;;;11.08;60.52;102513.16;5020047;28;20116;-39
2024/01/31 01:53:05;;;;;;;0.10;0.10;;;;;;;11.18;60.27;102503.19;5028020;28;20499;-39
2024/01/31 01:55:30;;;;;;;0.10;0.10;;;;;;;11.25;60.08;102504.72;5013298;28;20037;-39
2024/01/31 01:57:56;;;;;;;1.23;1.17;;;;;;;11.16;60.32;102496.25;5022009;28;20040;-39
2024/01/31 02:00:24;;;;;;;0.28;0.20;;;;;;;11.17;60.25;102498.81;5029854;28;20041;-39
2024/01/31 02:02:50;;;;;;;0.10;0.10;;;;;;;11.23;60.05;102498.66;5020504;28;20041;-40
2024/01/31 02:05:16;;;;;;;0.25;0.25;;;;;;;11.19;59.99;102507.56;5022049;28;20037;-39
2024/01/31 02:07:42;;;;;;;0.10;0.10;;;;;;;11.34;59.83;102500.06;5023565;28;20037;-39
2024/01/31 02:10:08;;;;;;;0.10;0.10;;;;;;;11.26;59.89;102500.31;5029943;28;20484;-40
2024/01/31 02:12:33;;;;;;;0.15;0.15;;;;;;;11.26;60.15;102513.47;5024386;28;20032;-39
2024/01/31 02:14:59;;;;;;;0.10;0.10;;;;;;;11.29;59.94;102502.84;5024438;28;20400;-37
2024/01/31 02:17:24;;;;;;;0.10;0.10;;;;;;;11.32;59.92;102501.88;5031760;28;20132;-38
2024/01/31 02:19:50;;;;;;;0.10;0.10;;;;;;;11.22;59.94;102510.09;5024219;28;20400;-39
2024/01/31 02:22:19;;;;;;;0.45;0.30;;;;;;;11.18;60.17;102500.56;5028804;28;20037;-40
2024/01/31 02:24:45;;;;;;;0.20;0.20;;;;;;;11.31;59.90;102505.41;5030520;28;20036;-49
2024/01/31 02:27:11;;;;;;;0.05;0.05;;;;;;;11.34;59.99;102505.31;5026341;28;20037;-46
2024/01/31 02:29:37;;;;;;;2.10;0.40;;;;;;;11.37;59.91;102511.34;5022580;28;20029;-48
2024/01/31 02:32:03;;;;;;;0.10;0.10;;;;;;;11.32;59.91;102502.75;5024789;28;20053;-47
2024/01/31 02:34:29;;;;;;;0.00;0.00;;;;;;;11.40;59.77;102503.34;5022148;28;20069;-51
2024/01/31 02:36:54;;;;;;;0.10;0.10;;;;;;;11.40;59.85;102507.78;5025889;28;20539;-46
2024/01/31 02:39:19;;;;;;;0.10;0.10;;;;;;;11.32;60.21;102505.38;5026206;28;20029;-45
2024/01/31 02:41:44;;;;;;;0.00;0.00;;;;;;;11.34;59.63;102502.69;5027242;28;20065;-47
2024/01/31 02:44:10;;;;;;;0.00;0.00;;;;;;;11.45;60.03;102492.66;5018611;28;20288;-47
2024/01/31 02:46:37;;;;;;;0.10;0.10;;;;;;;11.39;59.93;102492.88;5023685;28;20049;-45
2024/01/31 02:49:02;;;;;;;0.10;0.10;;;;;;;11.41;59.82;102498.97;5019220;28;20113;-46
2024/01/31 02:51:27;;;;;;;1.35;0.30;;;;;;;11.27;59.46;102494.97;5024775;28;20476;-46
2024/01/31 02:53:53;;;;;;;0.00;0.00;;;;;;;11.42;59.55;102492.75;5026573;28;20045;-46
2024/01/31 02:56:18;;;;;;;0.07;0.07;;;;;;;11.38;59.45;102501.69;5024220;28;20960;-48
2024/01/31 02:58:43;;;;;;;0.30;0.30;;;;;;;11.38;59.33;102493.78;5016549;28;20315;-46
2024/01/31 03:01:09;;;;;;;0.10;0.10;;;;;;;11.36;59.22;102499.09;5021859;28;20045;-50
2024/01/31 03:03:34;;;;;;;2.55;0.45;;;;;;;11.34;59.31;102500.94;5023271;28;20033;-46
2024/01/31 03:05:59;;;;;;;0.80;0.43;;;;;;;11.29;59.42;102497.56;5027767;28;20022;-47
2024/01/31 03:08:24;;;;;;;0.10;0.10;;;;;;;11.27;59.44;102505.50;5035019;28;20497;-44
2024/01/31 03:10:50;;;;;;;0.10;0.10;;;;;;;11.20;59.63;102518.94;5027480;28;20037;-48
2024/01/31 03:13:15;;;;;;;0.10;0.10;;;;;;;11.35;59.55;102504.41;5022174;28;20037;-45
2024/01/31 03:15:40;;;;;;;0.28;0.28;;;;;;;11.32;59.40;102509.78;5028669;28;20714;-47
2024/01/31 03:18:06;;;;;;;0.10;0.10;;;;;;;11.28;59.49;102507.25;5020825;28;20036;-44
2024/01/31 03:20:34;;;;;;;0.10;0.10;;;;;;;11.33;59.21;102520.28;5018933;28;20897;-45
2024/01/31 03:23:00;;;;;;;0.10;0.10;;;;;;;11.21;59.43;102510.13;5021091;28;20411;-45
2024/01/31 03:25:25;;;;;;;0.10;0.10;;;;;;;11.24;59.27;102524.09;5022054;28;20052;-47
2024/01/31 03:27:50;;;;;;;0.10;0.10;;;;;;;11.16;59.27;102526.09;5023837;28;20038;-46
2024/01/31 03:30:15;;;;;;;0.10;0.10;;;;;;;11.26;59.45;102538.06;5020226;28;20334;-46
2024/01/31 03:32:41;;;;;;;0.20;0.20;;;;;;;11.24;59.34;102526.72;5013585;28;20285;-47
2024/01/31 03:35:06;;;;;;;0.17;0.17;;;;;;;11.16;59.67;102534.00;5020020;28;20029;-46
2024/01/31 03:37:32;;;;;;;0.10;0.10;;;;;;;11.19;59.64;102533.06;5027383;28;20028;-46
2024/01/31 03:39:57;;;;;;;0.10;0.10;;;;;;;11.24;59.62;102534.63;5028141;28;20041;-45
2024/01/31 03:42:22;;;;;;;0.13;0.13;;;;;;;11.21;59.67;102532.09;5025526;28;20095;-46
2024/01/31 03:44:48;;;;;;;0.65;0.43;;;;;;;11.12;59.93;102533.22;5017607;28;20059;-46
2024/01/31 03:47:13;;;;;;;0.15;0.13;;;;;;;11.12;60.65;102532.34;5026384;28;20504;-46
2024/01/31 03:49:38;;;;;;;2.00;1.80;;;;;;;11.03;61.00;102536.16;5024243;28;20025;-46
2024/01/31 03:52:04;;;;;;;0.10;0.10;;;;;;;11.03;61.19;102538.81;5020959;28;20327;-47
2024/01/31 03:54:29;;;;;;;0.13;0.13;;;;;;;11.03;61.54;102543.19;5023575;28;20279;-41
2024/01/31 03:56:54;;;;;;;1.37;0.87;;;;;;;10.96;61.70;102543.41;5024178;28;20036;-42
2024/01/31 03:59:20;;;;;;;0.47;0.45;;;;;;;10.93;61.44;102532.94;5025880;28;20295;-41
2024/01/31 04:01:49;;;;;;;3.70;0.90;;;;;;;10.85;62.61;102544.63;5012142;28;20084;-40
2024/01/31 04:04:14;;;;;;;0.22;0.17;;;;;;;10.92;61.91;102551.41;5005077;28;20025;-39
2024/01/31 04:06:40;;;;;;;0.25;0.22;;;;;;;10.74;62.61;102548.41;5011730;28;20369;-41
2024/01/31 04:09:06;;;;;;;0.10;0.10;;;;;;;10.81;62.37;102554.41;5026388;28;20485;-39
2024/01/31 04:11:34;;;;;;;0.50;0.25;;;;;;;10.83;62.35;102555.19;5023848;28;20305;-41
2024/01/31 04:14:00;;;;;;;1.30;1.20;;;;;;;10.83;62.31;102561.31;5028381;28;20502;-39
2024/01/31 04:16:25;;;;;;;1.80;1.67;;;;;;;10.83;62.00;102560.44;5029792;28;20032;-37
2024/01/31 04:18:50;;;;;;;4.65;4.35;;;;;;;10.74;62.03;102556.31;5028641;28;20032;-38
2024/01/31 04:21:22;;;;;;;2.50;1.80;;;;;;;10.62;61.90;102560.19;5021956;28;20026;-39
2024/01/31 04:23:48;;;;;;;1.83;1.20;;;;;;;10.71;61.75;102560.81;5024929;28;20290;-37
2024/01/31 04:26:13;;;;;;;1.80;0.95;;;;;;;10.77;61.64;102568.53;5025305;28;20488;-40
2024/01/31 04:28:38;;;;;;;1.23;1.13;;;;;;;10.79;61.33;102558.84;5027365;28;20032;-43
2024/01/31 04:31:04;;;;;;;2.35;1.50;;;;;;;10.75;61.34;102559.81;5024715;28;20037;-45
2024/01/31 04:33:29;;;;;;;1.55;0.88;;;;;;;10.74;61.30;102558.09;5020004;28;20514;-38
2024/01/31 04:35:54;;;;;;;0.75;0.43;;;;;;;10.68;61.66;102565.25;5018813;28;20480;-40
2024/01/31 04:38:20;;;;;;;1.75;0.80;;;;;;;10.71;61.62;102569.59;5024626;28;20430;-37
2024/01/31 04:40:45;;;;;;;6.63;6.13;;;;;;;10.62;61.97;102573.34;5025365;28;20025;-38
2024/01/31 04:43:11;;;;;;;2.80;1.65;;;;;;;10.59;62.00;102576.06;5024294;28;20045;-37
2024/01/31 04:45:36;;;;;;;2.13;0.90;;;;;;;10.57;61.88;102575.25;5015769;28;20083;-37
2024/01/31 04:48:01;;;;;;;3.00;2.60;;;;;;;10.56;61.92;102573.50;5021205;28;20080;-43
2024/01/31 04:50:26;;;;;;;1.90;0.97;;;;;;;10.47;62.30;102571.16;5021165;28;20029;-37
2024/01/31 04:52:52;;;;;;;5.60;3.63;;;;;;;10.45;62.23;102573.81;5024652;28;20285;-38
2024/01/31 04:55:17;;;;;;;0.10;0.10;;;;;;;10.47;62.11;102577.28;5017832;28;20036;-43
2024/01/31 04:57:42;;;;;;;0.00;0.00;;;;;;;10.43;62.20;102580.03;5020498;28;20029;-37
2024/01/31 05:00:16;;;;;;;0.30;0.20;;;;;;;10.42;62.10;102581.81;5017716;28;20555;-42
2024/01/31 05:02:41;;;;;;;0.10;0.10;;;;;;;10.43;62.09;102574.78;5017252;28;20025;-42
2024/01/31 05:05:06;;;;;;;0.10;0.10;;;;;;;10.39;62.13;102571.38;5020287;28;20060;-42
2024/01/31 05:07:32;;;;;;;0.15;0.15;;;;;;;10.35;62.12;102573.19;5018821;28;20053;-41
2024/01/31 05:09:57;;;;;;;1.08;0.77;;;;;;;10.28;62.33;102582.16;5012762;28;20036;-41
2024/01/31 05:12:23;;;;;;;0.10;0.10;;;;;;;10.37;62.24;102576.63;5019025;28;20033;-43
2024/01/31 05:14:48;;;;;;;1.75;0.82;;;;;;;10.39;62.09;102583.66;5019099;28;20037;-40
2024/01/31 05:17:15;;;;;;;0.93;0.50;;;;;;;10.42;62.03;102580.94;5021526;28;20041;-42
2024/01/31 05:19:42;;;;;;;0.10;0.10;;;;;;;10.51;61.63;102588.59;5019170;28;20363;-39
2024/01/31 05:22:07;;;;;;;0.10;0.10;;;;;;;10.46;61.75;102587.84;5025965;28;20037;-38
2024/01/31 05:24:32;;;;;;;0.10;0.10;;;;;;;10.41;61.81;102581.84;5022793;28;20044;-38
2024/01/31 05:27:03;;;;;;;0.17;0.17;;;;;;;10.37;61.83;102581.88;5024379;28;20063;-38
2024/01/31 05:29:29;;;;;;;0.10;0.10;;;;;;;10.34;61.85;102596.91;5025317;28;20033;-37
2024/01/31 05:31:54;;;;;;;0.25;0.20;;;;;;;10.24;61.88;102585.75;5028602;28;20044;-38
2024/01/31 05:34:21;;;;;;;0.13;0.13;;;;;;;10.27;62.10;102588.31;5019059;28;20037;-37
2024/01/31 05:36:46;;;;;;;0.35;0.32;;;;;;;10.32;62.17;102599.59;5022513;28;20299;-37
2024/01/31 05:39:11;;;;;;;1.80;1.70;;;;;;;10.37;61.91;102597.69;5022705;28;20045;-36
2024/01/31 05:41:43;;;;;;;3.03;2.83;;;;;;;10.40;61.68;102596.78;5022733;28;20286;-43
2024/01/31 05:44:09;;;;;;;;;;;;;;;10.38;61.46;102601.22;5018934;28;20291;-41
2024/01/31 05:46:34;;;;;;;3.35;1.38;;;;;;;10.42;61.34;102610.75;5009029;28;19929;-36
2024/01/31 05:49:02;;;;;;;2.72;1.33;;;;;;;10.45;61.32;102604.53;5014570;28;20041;-36
2024/01/31 05:51:28;;;;;;;4.65;2.30;;;;;;;10.31;61.31;102621.53;5023627;28;20037;-43
2024/01/31 05:53:53;;;;;;;4.45;2.47;;;;;;;10.40;61.14;102620.47;5020765;28;20083;-40
2024/01/31 05:56:18;;;;;;;4.10;2.73;;;;;;;10.39;60.97;102641.53;5024977;28;20029;-40
2024/01/31 05:58:43;;;;;;;3.58;1.42;;;;;;;10.26;61.24;102636.56;5020190;28;20701;-39
2024/01/31 06:01:09;;;;;;;7.93;7.03;;;;;;;10.19;60.93;102637.66;5020220;28;20068;-36
2024/01/31 06:03:34;;;;;;;7.47;5.37;;;;;;;10.26;60.78;102643.63;5025519;28;21739;-39
2024/01/31 06:05:59;;;;;;;5.43;4.90;;;;;;;10.37;60.72;102645.03;5028839;28;20295;-37
2024/01/31 06:08:25;;;;;;;4.00;3.00;;;;;;;10.29;60.54;102651.41;5025118;28;20395;-38
2024/01/31 06:10:54;;;;;;;3.80;2.22;;;;;;;10.19;60.36;102653.44;5021804;28;20289;-39
2024/01/31 06:13:22;;;;;;;5.40;4.78;;;;;;;10.16;60.31;102656.13;5024257;28;20029;-39
2024/01/31 06:15:48;;;;;;;3.97;2.25;;;;;;;10.18;60.21;102670.13;5024257;28;20455;-39
2024/01/31 06:18:15;;;;;;;3.13;1.05;;;;;;;10.20;60.30;102661.28;5022158;28;20026;-39
2024/01/31 06:20:43;;;;;;;3.03;1.67;;;;;;;10.24;59.91;102669.94;5027842;28;20026;-43
2024/01/31 06:23:09;;;;;;;5.47;3.65;;;;;;;10.18;59.74;102670.13;5022589;28;20104;-36
2024/01/31 06:25:35;;;;;;;5.68;4.47;;;;;;;10.15;59.56;102680.72;5023094;28;20078;-40
2024/01/31 06:28:01;;;;;;;3.60;1.63;;;;;;;10.07;59.73;102683.53;5022232;28;20034;-39
2024/01/31 06:30:31;;;;;;;3.00;1.42;;;;;;;10.02;59.83;102678.41;5025672;28;20057;-38
2024/01/31 06:33:05;;;;;;;3.28;2.08;;;;;;;10.13;59.97;102682.53;5025437;28;20144;-41
2024/01/31 06:35:31;;;;;;;2.42;1.42;;;;;;;9.99;59.91;102691.63;5023590;28;20464;-37
2024/01/31 06:37:56;;;;;;;2.22;1.17;;;;;;;9.92;59.89;102684.75;5026831;28;20032;-36
2024/01/31 06:40:22;;;;;;;2.27;1.27;;;;;;;9.95;59.77;102687.31;5022354;28;20037;-38
2024/01/31 06:42:48;;;;;;;1.77;1.30;;;;;;;10.10;59.55;102687.84;5024657;28;20327;-40
2024/01/31 06:45:14;;;;;;;2.15;1.45;;;;;;;10.10;59.59;102695.75;5031020;28;20036;-40
2024/01/31 06:47:39;;;;;;;3.00;2.70;;;;;;;9.91;59.23;102693.53;5026659;28;20416;-40
2024/01/31 06:50:05;;;;;;;3.67;3.38;;;;;;;9.91;59.19;102704.94;5023521;28;20049;-39
2024/01/31 06:52:33;;;;;;;2.90;2.58;;;;;;;9.92;59.16;102705.78;5023941;28;20055;-43
2024/01/31 06:54:58;;;;;;;4.80;4.32;;;;;;;10.02;59.12;102711.72;5027619;28;20029;-40
2024/01/31 06:57:24;;;;;;;2.47;0.65;;;;;;;10.02;58.94;102717.84;5028312;28;20041;-40
2024/01/31 06:59:49;;;;;;;6.25;3.95;;;;;;;9.97;58.56;102714.44;5023627;28;20049;-42
2024/01/31 07:02:14;;;;;;;8.77;8.03;;;;;;;9.98;58.47;102721.44;5041203;28;20053;-42
2024/01/31 07:04:39;;;;;;;6.43;5.83;;;;;;;9.79;58.48;102717.50;5022974;28;20287;-41
2024/01/31 07:07:05;;;;;;;5.82;5.30;;;;;;;9.80;58.60;102721.84;5030793;28;20779;-42
2024/01/31 07:09:32;;;;;;;6.85;6.25;;;;;;;9.87;58.35;102726.94;5025036;28;20028;-42
2024/01/31 07:11:57;;;;;;;2.60;0.70;;;;;;;9.99;58.47;102723.16;5027905;28;20155;-41
2024/01/31 07:14:23;;;;;;;3.10;1.50;;;;;;;9.88;58.22;102726.03;5033483;28;20038;-40
2024/01/31 07:16:48;;;;;;;3.20;1.27;;;;;;;9.93;58.46;102749.59;5026383;28;20115;-40
2024/01/31 07:19:13;;;;;;;10.88;10.10;;;;;;;10.03;58.34;102734.47;5027938;28;20299;-41
2024/01/31 07:21:39;;;;;;;4.73;3.83;;;;;;;10.05;58.05;102733.56;5028194;28;20060;-42
2024/01/31 07:24:07;;;;;;;5.15;4.65;;;;;;;9.90;57.77;102739.19;5034690;28;20254;-42
2024/01/31 07:26:32;;;;;;;5.75;4.93;;;;;;;9.90;58.29;102739.19;5018065;28;20120;-40
2024/01/31 07:28:58;;;;;;;4.07;3.10;;;;;;;9.89;58.09;102740.94;5025801;28;20488;-40
2024/01/31 07:31:23;;;;;;;10.07;9.43;;;;;;;9.89;57.89;102737.44;5027512;28;20175;-40
2024/01/31 07:33:49;;;;;;;6.55;6.13;;;;;;;9.73;58.02;102748.31;5018030;28;20103;-40
2024/01/31 07:36:15;;;;;;;1.10;0.68;;;;;;;9.86;58.24;102758.53;5022130;28;20044;-40
2024/01/31 07:38:45;;;;;;;4.80;4.43;;;;;;;9.84;58.07;102766.44;5020882;28;20033;-41
2024/01/31 07:41:11;;;;;;;8.30;7.72;;;;;;;9.73;58.27;102760.56;5028393;28;20029;-39
2024/01/31 07:43:37;;;;;;;2.05;1.92;;;;;;;9.75;58.30;102767.53;5024990;28;20033;-41
2024/01/31 07:46:09;;;;;;;5.45;5.10;;;;;;;9.71;58.47;102776.38;5018148;28;20029;-40
2024/01/31 07:48:34;;;;;;;1.52;1.38;;;;;;;9.69;58.30;102772.91;5008768;28;20088;-41
2024/01/31 07:51:05;;;;;;;0.55;0.40;;;;;;;9.80;58.37;102783.22;5022188;28;20093;-42
2024/01/31 07:53:31;;;;;;;6.75;6.28;;;;;;;9.79;58.77;102780.59;5027491;28;20100;-43
2024/01/31 07:55:57;;;;;;;0.73;0.60;;;;;;;9.85;58.64;102777.84;5026279;28;20026;-42
2024/01/31 07:58:22;;;;;;;3.42;3.13;;;;;;;9.80;58.64;102780.59;5024988;28;20029;-40
2024/01/31 08:00:48;;;;;;;5.90;5.50;;;;;;;9.79;58.56;102783.22;5027911;28;20033;-40
2024/01/31 08:03:13;;;;;;;1.42;1.13;;;;;;;9.76;58.59;102786.81;5025206;28;20288;-40
2024/01/31 08:05:38;;;;;;;1.02;0.77;;;;;;;9.91;58.66;102780.31;5025060;28;20487;-41
2024/01/31 08:08:04;;;;;;;0.65;0.65;;;;;;;9.90;58.84;102792.63;5018235;28;20033;-41
2024/01/31 08:10:29;;;;;;;0.98;0.85;;;;;;;9.96;58.88;102785.50;5025679;28;20040;-38
2024/01/31 08:12:54;;;;;;;1.60;1.27;;;;;;;9.97;58.98;102785.47;5025256;28;20038;-37
2024/01/31 08:15:20;;;;;;;0.50;0.47;;;;;;;9.87;58.77;102797.09;5021952;28;20296;-38
2024/01/31 08:17:46;;;;;;;0.95;0.60;;;;;;;9.65;58.67;102792.28;5025030;28;20793;-39
2024/01/31 08:20:12;;;;;;;3.65;3.45;;;;;;;9.68;58.97;102801.88;5027135;28;20033;-37
2024/01/31 08:22:37;;;;;;;1.58;1.45;;;;;;;9.60;58.85;102802.03;5028304;28;20025;-39
2024/01/31 08:25:04;;;;;;;3.25;3.05;;;;;;;9.68;59.02;102813.25;5029467;28;20036;-40
2024/01/31 08:27:30;;;;;;;0.28;0.22;;;;;;;9.57;58.66;102817.88;5026321;28;20032;-39
2024/01/31 08:29:55;;;;;;;0.13;0.13;;;;;;;9.53;58.80;102838.06;5023906;28;20038;-39
2024/01/31 08:32:21;;;;;;;0.20;0.20;;;;;;;9.56;58.94;102824.88;5022995;28;20033;-39
2024/01/31 08:34:46;;;;;;;1.08;0.93;;;;;;;9.54;58.74;102820.56;5018004;28;20029;-38
2024/01/31 08:37:12;;;;;;;1.13;0.85;;;;;;;9.24;59.06;102828.13;5024408;28;20090;-38
2024/01/31 08:39:37;;;;;;;1.08;0.73;;;;;;;9.18;58.74;102834.38;5031318;28;20035;-39
2024/01/31 08:42:03;;;;;;;1.40;1.00;;;;;;;9.09;58.88;102838.03;5023296;28;20033;-40
2024/01/31 08:44:29;;;;;;;0.50;0.32;;;;;;;9.11;59.03;102828.38;5018849;28;20316;-37
2024/01/31 08:46:54;;;;;;;3.47;3.20;;;;;;;9.06;59.04;102824.94;5021807;28;20077;-38
2024/01/31 08:49:21;;;;;;;0.30;0.22;;;;;;;9.11;59.20;102827.47;5017900;28;20057;-40
2024/01/31 08:51:46;;;;;;;0.63;0.45;;;;;;;9.08;59.34;102843.28;5020169;28;20052;-39
2024/01/31 08:54:12;;;;;;;0.25;0.20;;;;;;;9.19;59.22;102838.72;5021705;28;20029;-38
2024/01/31 08:56:37;;;;;;;1.67;1.13;;;;;;;9.10;59.50;102837.13;5026385;28;20079;-37
2024/01/31 08:59:02;;;;;;;7.47;6.90;;;;;;;9.20;59.34;102832.59;5015674;28;20095;-40
2024/01/31 09:01:27;;;;;;;0.53;0.37;;;;;;;9.23;59.23;102842.16;5025057;28;20770;-40
2024/01/31 09:03:54;;;;;;;0.83;0.53;;;;;;;9.34;59.58;102834.94;5027189;28;20327;-47
2024/01/31 09:06:19;;;;;;;0.68;0.50;;;;;;;9.22;59.32;102843.06;5023001;28;20311;-36
2024/01/31 09:08:44;;;;;;;0.13;0.13;;;;;;;9.26;59.38;102844.75;5018222;28;20675;-47
2024/01/31 09:11:10;;;;;;;0.88;0.85;;;;;;;9.28;59.98;102840.31;5021294;28;20276;-39
2024/01/31 09:13:35;;;;;;;0.30;0.20;;;;;;;9.29;59.20;102844.69;5023666;28;20099;-41
2024/01/31 09:16:01;;;;;;;0.10;0.10;;;;;;;9.22;59.29;102835.16;5021032;28;20310;-40
2024/01/31 09:18:27;;;;;;;0.13;0.13;;;;;;;9.28;59.60;102845.59;5024028;28;20519;-41
2024/01/31 09:20:52;;;;;;;1.30;0.65;;;;;;;9.34;59.39;102845.44;5025561;28;20060;-40
2024/01/31 09:23:18;;;;;;;0.33;0.30;;;;;;;9.32;58.90;102836.72;5025531;28;20108;-40
2024/01/31 09:25:43;;;;;;;1.83;1.40;;;;;;;9.23;58.87;102826.41;5018433;28;22743;-40
2024/01/31 09:28:08;;;;;;;0.17;0.15;;;;;;;9.22;58.54;102824.66;5023002;28;20274;-41
2024/01/31 09:30:34;;;;;;;0.68;0.45;;;;;;;9.21;58.66;102826.44;5029685;28;20060;-41
2024/01/31 09:32:59;;;;;;;0.10;0.10;;;;;;;9.18;58.70;102844.00;5022884;28;20025;-40
2024/01/31 09:35:24;;;;;;;0.30;0.28;;;;;;;9.22;58.56;102861.44;5021560;28;20449;-40
2024/01/31 09:37:49;;;;;;;0.40;0.30;;;;;;;9.08;58.71;102864.31;5026673;28;20029;-40
2024/01/31 09:40:15;;;;;;;0.10;0.10;;;;;;;9.12;59.15;102859.00;5025470;28;20036;-42
2024/01/31 09:42:44;;;;;;;0.25;0.25;;;;;;;9.03;59.42;102861.75;5020802;28;20280;-42
2024/01/31 09:45:14;;;;;;;1.08;0.75;;;;;;;9.10;59.54;102860.78;5025306;28;20068;-42
2024/01/31 09:47:43;;;;;;;0.28;0.25;;;;;;;9.09;59.32;102859.03;5022462;28;21256;-44
2024/01/31 09:50:08;;;;;;;0.20;0.20;;;;;;;9.13;59.16;102854.59;5017318;28;20029;-41
2024/01/31 09:52:35;;;;;;;0.10;0.10;;;;;;;9.20;59.03;102857.97;5021226;28;20042;-41
2024/01/31 09:55:04;;;;;;;0.10;0.10;;;;;;;9.19;58.52;102864.13;5024580;28;20030;-42
2024/01/31 09:57:30;;;;;;;0.22;0.20;;;;;;;9.26;58.56;102855.25;5023015;28;20040;-44
2024/01/31 09:59:56;;;;;;;0.35;0.30;;;;;;;9.30;58.60;102870.06;5018879;28;20032;-44
2024/01/31 10:02:22;;;;;;;0.70;0.50;;;;;;;9.30;58.14;102872.69;5026164;28;20029;-44
2024/01/31 10:04:51;;;;;;;0.95;0.65;;;;;;;9.24;57.80;102872.78;5019724;28;20041;-42
2024/01/31 10:07:23;;;;;;;0.43;0.32;;;;;;;9.30;57.51;102864.81;5023593;28;20025;-40
2024/01/31 10:09:50;;;;;;;0.28;0.25;;;;;;;9.34;57.19;102865.63;5037558;28;20040;-42
2024/01/31 10:12:17;;;;;;;0.35;0.28;;;;;;;9.37;57.01;102876.06;5024793;28;20462;-44
2024/01/31 10:14:43;;;;;;;0.40;0.35;;;;;;;9.35;57.32;102886.59;5026524;28;20116;-41
2024/01/31 10:17:08;;;;;;;0.52;0.43;;;;;;;9.36;57.56;102872.56;5023552;28;20105;-42
2024/01/31 10:19:34;;;;;;;0.95;0.75;;;;;;;9.30;56.85;102872.69;5026520;28;20026;-42
2024/01/31 10:21:59;;;;;;;0.43;0.40;;;;;;;9.15;57.59;102866.78;5023716;28;20415;-41
2024/01/31 10:24:24;;;;;;;0.63;0.60;;;;;;;9.12;56.67;102861.63;5024602;28;20033;-40
2024/01/31 10:26:50;;;;;;;0.93;0.60;;;;;;;9.30;57.54;102862.19;5022136;28;20065;-45
2024/01/31 10:29:15;;;;;;;0.13;0.13;;;;;;;9.18;56.65;102859.75;5025719;28;20276;-40
2024/01/31 10:31:43;;;;;;;0.55;0.43;;;;;;;9.21;56.17;102867.59;5022238;28;21214;-40
2024/01/31 10:34:09;;;;;;;0.82;0.63;;;;;;;9.33;56.07;102862.09;5018931;28;20056;-39
2024/01/31 10:36:35;;;;;;;0.60;0.50;;;;;;;9.39;57.80;102869.88;5026457;28;20041;-39
2024/01/31 10:39:02;;;;;;;0.68;0.55;;;;;;;9.36;56.79;102874.34;5028119;28;20022;-37
2024/01/31 10:41:29;;;;;;;0.17;0.17;;;;;;;9.28;56.26;102885.84;5026348;28;20451;-41
2024/01/31 10:43:55;;;;;;;0.10;0.10;;;;;;;9.35;56.60;102869.97;5024803;28;20036;-41
2024/01/31 10:46:21;;;;;;;0.10;0.10;;;;;;;9.32;56.97;102881.38;5031860;28;20373;-40
2024/01/31 10:48:46;;;;;;;0.73;0.60;;;;;;;9.17;56.48;102890.44;5020808;28;21369;-40
2024/01/31 10:51:13;;;;;;;0.35;0.35;;;;;;;9.06;56.29;102893.22;5018349;28;20087;-40
2024/01/31 10:53:40;;;;;;;0.57;0.57;;;;;;;9.03;56.88;102872.25;5026414;28;20072;-40
2024/01/31 10:56:06;;;;;;;0.30;0.30;;;;;;;8.98;57.74;102874.97;5028882;28;20036;-40
2024/01/31 10:58:33;;;;;;;0.15;0.13;;;;;;;9.08;57.04;102857.31;5027908;28;20048;-40
2024/01/31 11:01:02;;;;;;;1.95;1.67;;;;;;;9.06;57.44;102866.13;5029073;28;20036;-40
2024/01/31 11:03:27;;;;;;;0.40;0.35;;;;;;;9.07;57.85;102862.59;5027853;28;20063;-40
2024/01/31 11:05:53;;;;;;;0.40;0.38;;;;;;;8.76;58.33;102882.34;5028704;28;20504;-42
2024/01/31 11:08:24;;;;;;;0.47;0.45;;;;;;;8.72;59.18;102872.75;5021933;28;20036;-41
2024/01/31 11:10:52;;;;;;;0.40;0.40;;;;;;;8.70;59.72;102866.66;5018185;28;20049;-42
2024/01/31 11:13:18;;;;;;;0.10;0.10;;;;;;;8.73;59.76;102836.91;5019730;28;20116;-40
2024/01/31 11:15:44;;;;;;;0.40;0.38;;;;;;;8.79;59.56;102835.03;5023749;28;20029;-41
2024/01/31 11:18:11;;;;;;;0.50;0.50;;;;;;;8.80;59.50;102839.41;5016119;28;20025;-41
2024/01/31 11:20:47;;;;;;;1.25;1.00;;;;;;;8.80;59.73;102849.91;5016302;28;20546;-40
2024/01/31 11:23:27;;;;;;;0.50;0.43;;;;;;;8.85;59.49;102848.03;5014230;28;20511;-41